sensor_id;sensor_type;location;lat;lon;timestamp;pressure;altitude;pressure_sealevel;temperature;humidity
5298;BME280;14738;42.668;23.250;2022-07-29T00:01:46;48394.28;;;-141.90;100.00
5298;BME280;14738;42.668;23.250;2022-07-29T00:04:12;48437.94;;;-141.90;100.00
5298;BME280;14738;42.668;23.250;2022-07-29T00:06:37;48426.03;;;-141.90;100.00
5298;BME280;14738;42.668;23.250;2022-07-29T00:09:03;48406.19;;;-141.90;100.00
5298;BME280;14738;42.668;23.250;2022-07-29T00:11:28;48398.25;;;-141.90;100.00
5298;BME280;14738;42.668;23.250;2022-07-29T00:13:54;48422.06;;;-141.90;100.00
5298;BME280;14738;42.668;23.250;2022-07-29T00:16:19;48437.94;;;-141.90;100.00
5298;BME280;14738;42.668;23.250;2022-07-29T00:18:45;48426.03;;;-141.90;100.00
5298;BME280;14738;42.668;23.250;2022-07-29T00:21:10;48439.94;;;-141.90;100.00
5298;BME280;14738;42.668;23.250;2022-07-29T00:23:35;48420.09;;;-141.90;100.00
5298;BME280;14738;42.668;23.250;2022-07-29T00:26:01;48433.97;;;-141.90;100.00
5298;BME280;14738;42.668;23.250;2022-07-29T00:28:26;48420.09;;;-141.90;100.00
5298;BME280;14738;42.668;23.250;2022-07-29T00:30:52;48420.09;;;-141.90;100.00
5298;BME280;14738;42.668;23.250;2022-07-29T00:33:17;48424.06;;;-141.90;100.00
5298;BME280;14738;42.668;23.250;2022-07-29T00:35:43;48410.16;;;-141.90;100.00
5298;BME280;14738;42.668;23.250;2022-07-29T00:38:08;48441.91;;;-141.90;100.00
5298;BME280;14738;42.668;23.250;2022-07-29T00:40:34;48412.13;;;-141.90;100.00
5298;BME280;14738;42.668;23.250;2022-07-29T00:42:59;48422.06;;;-141.90;100.00
5298;BME280;14738;42.668;23.250;2022-07-29T00:45:25;48402.22;;;-141.90;100.00
5298;BME280;14738;42.668;23.250;2022-07-29T00:47:50;48410.16;;;-141.90;100.00
5298;BME280;14738;42.668;23.250;2022-07-29T00:50:16;48408.16;;;-141.90;100.00
5298;BME280;14738;42.668;23.250;2022-07-29T00:52:42;48398.25;;;-141.90;100.00
5298;BME280;14738;42.668;23.250;2022-07-29T00:55:10;48406.19;;;-141.90;100.00
5298;BME280;14738;42.668;23.250;2022-07-29T00:57:36;48388.31;;;-141.90;100.00
5298;BME280;14738;42.668;23.250;2022-07-29T01:00:09;48398.25;;;-141.90;100.00
5298;BME280;14738;42.668;23.250;2022-07-29T01:02:35;48406.19;;;-141.90;100.00
5298;BME280;14738;42.668;23.250;2022-07-29T01:05:02;48422.06;;;-141.90;100.00
5298;BME280;14738;42.668;23.250;2022-07-29T01:07:30;48402.22;;;-141.90;100.00
5298;BME280;14738;42.668;23.250;2022-07-29T01:09:56;48394.28;;;-141.90;100.00
5298;BME280;14738;42.668;23.250;2022-07-29T01:12:25;48414.13;;;-141.90;100.00
5298;BME280;14738;42.668;23.250;2022-07-29T01:14:53;48376.41;;;-141.90;100.00
5298;BME280;14738;42.668;23.250;2022-07-29T01:23:48;48435.97;;;-141.90;100.00
5298;BME280;14738;42.668;23.250;2022-07-29T01:29:02;48412.13;;;-141.90;100.00
5298;BME280;14738;42.668;23.250;2022-07-29T01:31:38;48402.22;;;-141.90;100.00
5298;BME280;14738;42.668;23.250;2022-07-29T01:34:08;48414.13;;;-141.90;100.00
5298;BME280;14738;42.668;23.250;2022-07-29T01:37:01;48430.00;;;-141.90;100.00
5298;BME280;14738;42.668;23.250;2022-07-29T01:39:36;48422.06;;;-141.90;100.00
5298;BME280;14738;42.668;23.250;2022-07-29T01:47:39;48418.09;;;-141.90;100.00
5298;BME280;14738;42.668;23.250;2022-07-29T01:50:08;48390.31;;;-141.90;100.00
5298;BME280;14738;42.668;23.250;2022-07-29T01:52:59;48414.13;;;-141.90;100.00
5298;BME280;14738;42.668;23.250;2022-07-29T01:55:29;48398.25;;;-141.90;100.00
5298;BME280;14738;42.668;23.250;2022-07-29T01:57:57;48390.31;;;-141.90;100.00
5298;BME280;14738;42.668;23.250;2022-07-29T02:00:25;48392.28;;;-141.90;100.00
5298;BME280;14738;42.668;23.250;2022-07-29T02:02:51;48410.16;;;-141.90;100.00
5298;BME280;14738;42.668;23.250;2022-07-29T02:05:20;48398.25;;;-141.90;100.00
5298;BME280;14738;42.668;23.250;2022-07-29T02:07:47;48414.13;;;-141.90;100.00
5298;BME280;14738;42.668;23.250;2022-07-29T02:10:14;48428.03;;;-141.90;100.00
5298;BME280;14738;42.668;23.250;2022-07-29T02:12:43;48388.31;;;-141.90;100.00
5298;BME280;14738;42.668;23.250;2022-07-29T02:15:10;48414.13;;;-141.90;100.00
5298;BME280;14738;42.668;23.250;2022-07-29T02:17:47;48390.31;;;-141.90;100.00
5298;BME280;14738;42.668;23.250;2022-07-29T02:20:15;48402.22;;;-141.90;100.00
5298;BME280;14738;42.668;23.250;2022-07-29T02:22:42;48400.22;;;-141.90;100.00
5298;BME280;14738;42.668;23.250;2022-07-29T02:25:10;48447.88;;;-141.90;100.00
5298;BME280;14738;42.668;23.250;2022-07-29T02:27:37;48388.31;;;-141.90;100.00
5298;BME280;14738;42.668;23.250;2022-07-29T02:30:04;48402.22;;;-141.90;100.00
5298;BME280;14738;42.668;23.250;2022-07-29T02:32:31;48422.06;;;-141.90;100.00
5298;BME280;14738;42.668;23.250;2022-07-29T02:35:00;48418.09;;;-141.90;100.00
5298;BME280;14738;42.668;23.250;2022-07-29T02:37:26;48432.00;;;-141.90;100.00
5298;BME280;14738;42.668;23.250;2022-07-29T02:39:54;48420.09;;;-141.90;100.00
5298;BME280;14738;42.668;23.250;2022-07-29T02:42:21;48433.97;;;-141.90;100.00
5298;BME280;14738;42.668;23.250;2022-07-29T02:44:48;48430.00;;;-141.90;100.00
5298;BME280;14738;42.668;23.250;2022-07-29T02:47:41;48422.06;;;-141.90;100.00
5298;BME280;14738;42.668;23.250;2022-07-29T02:50:20;48428.03;;;-141.90;100.00
5298;BME280;14738;42.668;23.250;2022-07-29T02:52:54;48416.09;;;-141.90;100.00
5298;BME280;14738;42.668;23.250;2022-07-29T02:55:30;48426.03;;;-141.90;100.00
5298;BME280;14738;42.668;23.250;2022-07-29T02:58:03;48394.28;;;-141.90;100.00
5298;BME280;14738;42.668;23.250;2022-07-29T03:00:32;48410.16;;;-141.90;100.00
5298;BME280;14738;42.668;23.250;2022-07-29T03:03:04;48426.03;;;-141.90;100.00
5298;BME280;14738;42.668;23.250;2022-07-29T03:05:32;48422.06;;;-141.90;100.00
5298;BME280;14738;42.668;23.250;2022-07-29T03:08:04;48430.00;;;-141.90;100.00
5298;BME280;14738;42.668;23.250;2022-07-29T03:10:31;48416.09;;;-141.90;100.00
5298;BME280;14738;42.668;23.250;2022-07-29T03:12:57;48412.13;;;-141.90;100.00
5298;BME280;14738;42.668;23.250;2022-07-29T03:15:24;48420.09;;;-141.90;100.00
5298;BME280;14738;42.668;23.250;2022-07-29T03:17:50;48382.34;;;-141.90;100.00
5298;BME280;14738;42.668;23.250;2022-07-29T03:20:16;48418.09;;;-141.90;100.00
5298;BME280;14738;42.668;23.250;2022-07-29T03:22:43;48422.06;;;-141.90;100.00
5298;BME280;14738;42.668;23.250;2022-07-29T03:25:16;48392.28;;;-141.90;100.00
5298;BME280;14738;42.668;23.250;2022-07-29T03:27:42;48420.09;;;-141.90;100.00
5298;BME280;14738;42.668;23.250;2022-07-29T03:30:09;48422.06;;;-141.90;100.00
5298;BME280;14738;42.668;23.250;2022-07-29T03:32:35;48426.03;;;-141.90;100.00
5298;BME280;14738;42.668;23.250;2022-07-29T03:35:02;48410.16;;;-141.90;100.00
5298;BME280;14738;42.668;23.250;2022-07-29T03:37:28;48424.06;;;-141.90;100.00
5298;BME280;14738;42.668;23.250;2022-07-29T03:39:57;48414.13;;;-141.90;100.00
5298;BME280;14738;42.668;23.250;2022-07-29T03:42:25;48394.28;;;-141.90;100.00
5298;BME280;14738;42.668;23.250;2022-07-29T03:44:52;48420.09;;;-141.90;100.00
5298;BME280;14738;42.668;23.250;2022-07-29T03:47:23;48426.03;;;-141.90;100.00
5298;BME280;14738;42.668;23.250;2022-07-29T03:49:52;48420.09;;;-141.90;100.00
5298;BME280;14738;42.668;23.250;2022-07-29T03:52:19;48392.28;;;-141.90;100.00
5298;BME280;14738;42.668;23.250;2022-07-29T03:54:45;48400.22;;;-141.90;100.00
5298;BME280;14738;42.668;23.250;2022-07-29T03:57:12;48384.34;;;-141.90;100.00
5298;BME280;14738;42.668;23.250;2022-07-29T03:59:38;48416.09;;;-141.90;100.00
5298;BME280;14738;42.668;23.250;2022-07-29T04:02:08;48441.91;;;-141.90;100.00
5298;BME280;14738;42.668;23.250;2022-07-29T04:04:35;48410.16;;;-141.90;100.00
5298;BME280;14738;42.668;23.250;2022-07-29T04:07:00;48424.06;;;-141.90;100.00
5298;BME280;14738;42.668;23.250;2022-07-29T04:09:26;48422.06;;;-141.90;100.00
5298;BME280;14738;42.668;23.250;2022-07-29T04:11:51;48437.94;;;-141.90;100.00
5298;BME280;14738;42.668;23.250;2022-07-29T04:14:17;48414.13;;;-141.90;100.00
5298;BME280;14738;42.668;23.250;2022-07-29T04:16:43;48459.78;;;-141.90;100.00
5298;BME280;14738;42.668;23.250;2022-07-29T04:19:08;48447.88;;;-141.90;100.00
5298;BME280;14738;42.668;23.250;2022-07-29T04:21:38;48453.81;;;-141.90;100.00
5298;BME280;14738;42.668;23.250;2022-07-29T04:24:04;48445.88;;;-141.90;100.00
5298;BME280;14738;42.668;23.250;2022-07-29T04:26:29;48457.81;;;-141.90;100.00
5298;BME280;14738;42.668;23.250;2022-07-29T04:28:54;48457.81;;;-141.90;100.00
5298;BME280;14738;42.668;23.250;2022-07-29T04:31:20;48449.84;;;-141.90;100.00
5298;BME280;14738;42.668;23.250;2022-07-29T04:33:45;48453.81;;;-141.90;100.00
5298;BME280;14738;42.668;23.250;2022-07-29T04:36:11;48449.84;;;-141.90;100.00
5298;BME280;14738;42.668;23.250;2022-07-29T04:38:37;48443.91;;;-141.90;100.00
5298;BME280;14738;42.668;23.250;2022-07-29T04:41:02;48433.97;;;-141.90;100.00
5298;BME280;14738;42.668;23.250;2022-07-29T04:43:28;48437.94;;;-141.90;100.00
5298;BME280;14738;42.668;23.250;2022-07-29T04:45:53;48461.78;;;-141.90;100.00
5298;BME280;14738;42.668;23.250;2022-07-29T04:48:19;48445.88;;;-141.90;100.00
5298;BME280;14738;42.668;23.250;2022-07-29T04:50:44;48463.75;;;-141.90;100.00
5298;BME280;14738;42.668;23.250;2022-07-29T04:53:10;48459.78;;;-141.90;100.00
5298;BME280;14738;42.668;23.250;2022-07-29T04:55:35;48487.56;;;-141.90;100.00
5298;BME280;14738;42.668;23.250;2022-07-29T04:58:01;48481.63;;;-141.90;100.00
5298;BME280;14738;42.668;23.250;2022-07-29T05:00:27;48459.78;;;-141.90;100.00
5298;BME280;14738;42.668;23.250;2022-07-29T05:02:52;48473.69;;;-141.90;100.00
5298;BME280;14738;42.668;23.250;2022-07-29T05:05:18;48465.75;;;-141.90;100.00
5298;BME280;14738;42.668;23.250;2022-07-29T05:07:43;48497.50;;;-141.90;100.00
5298;BME280;14738;42.668;23.250;2022-07-29T05:10:09;48497.50;;;-141.90;100.00
5298;BME280;14738;42.668;23.250;2022-07-29T05:12:34;48489.56;;;-141.90;100.00
5298;BME280;14738;42.668;23.250;2022-07-29T05:15:00;48509.41;;;-141.90;100.00
5298;BME280;14738;42.668;23.250;2022-07-29T05:17:25;48489.56;;;-141.90;100.00
5298;BME280;14738;42.668;23.250;2022-07-29T05:19:51;48515.38;;;-141.90;100.00
5298;BME280;14738;42.668;23.250;2022-07-29T05:22:18;48507.44;;;-141.90;100.00
5298;BME280;14738;42.668;23.250;2022-07-29T05:24:44;48497.50;;;-141.90;100.00
5298;BME280;14738;42.668;23.250;2022-07-29T05:27:09;48549.13;;;-141.90;100.00
5298;BME280;14738;42.668;23.250;2022-07-29T05:29:35;48527.28;;;-141.90;100.00
5298;BME280;14738;42.668;23.250;2022-07-29T05:32:00;48525.31;;;-141.90;100.00
5298;BME280;14738;42.668;23.250;2022-07-29T05:34:26;48541.19;;;-141.90;100.00
5298;BME280;14738;42.668;23.250;2022-07-29T05:36:51;48568.97;;;-141.90;100.00
5298;BME280;14738;42.668;23.250;2022-07-29T05:39:16;48563.03;;;-141.90;100.00
5298;BME280;14738;42.668;23.250;2022-07-29T05:41:42;48533.25;;;-141.90;100.00
5298;BME280;14738;42.668;23.250;2022-07-29T05:44:07;48521.34;;;-141.90;100.00
5298;BME280;14738;42.668;23.250;2022-07-29T05:46:33;48563.03;;;-141.90;100.00
5298;BME280;14738;42.668;23.250;2022-07-29T05:48:58;48592.81;;;-141.90;100.00
5298;BME280;14738;42.668;23.250;2022-07-29T05:51:23;48618.59;;;-141.90;100.00
5298;BME280;14738;42.668;23.250;2022-07-29T05:53:49;48676.19;;;-141.90;100.00
5298;BME280;14738;42.668;23.250;2022-07-29T05:56:14;48686.13;;;-141.90;41.00
5298;BME280;14738;42.668;23.250;2022-07-29T05:58:40;48650.38;;;-141.90;40.56
5298;BME280;14738;42.668;23.250;2022-07-29T06:01:05;48696.03;;;-141.90;40.76
5298;BME280;14738;42.668;23.250;2022-07-29T06:03:31;48707.94;;;-141.90;40.44
5298;BME280;14738;42.668;23.250;2022-07-29T06:05:56;48707.94;;;-141.90;39.70
5298;BME280;14738;42.668;23.250;2022-07-29T06:08:22;48733.75;;;-141.90;38.96
5298;BME280;14738;42.668;23.250;2022-07-29T06:10:47;48817.16;;;-141.90;36.08
5298;BME280;14738;42.668;23.250;2022-07-29T06:13:13;48896.56;;;-141.90;35.09
5298;BME280;14738;42.668;23.250;2022-07-29T06:15:41;48908.47;;;-141.90;32.81
5298;BME280;14738;42.668;23.250;2022-07-29T06:18:06;48976.00;;;-141.90;32.09
5298;BME280;14738;42.668;23.250;2022-07-29T06:20:34;48987.91;;;-141.90;30.85
5298;BME280;14738;42.668;23.250;2022-07-29T06:23:00;49049.44;;;-141.90;30.18
5298;BME280;14738;42.668;23.250;2022-07-29T06:25:26;49091.16;;;-141.90;29.16
5298;BME280;14738;42.668;23.250;2022-07-29T06:27:54;49081.22;;;-141.90;29.21
5298;BME280;14738;42.668;23.250;2022-07-29T06:30:19;49083.22;;;-141.90;29.37
5298;BME280;14738;42.668;23.250;2022-07-29T06:32:45;49113.00;;;-141.90;29.57
5298;BME280;14738;42.668;23.250;2022-07-29T06:35:10;49164.63;;;-141.90;28.63
5298;BME280;14738;42.668;23.250;2022-07-29T06:37:35;49279.78;;;-141.90;27.77
5298;BME280;14738;42.668;23.250;2022-07-29T06:40:01;49184.47;;;-141.90;27.14
5298;BME280;14738;42.668;23.250;2022-07-29T06:42:45;49182.50;;;-141.90;27.32
5298;BME280;14738;42.668;23.250;2022-07-29T06:45:11;49160.66;;;-141.90;28.20
5298;BME280;14738;42.668;23.250;2022-07-29T06:47:37;49212.28;;;-141.90;27.52
5298;BME280;14738;42.668;23.250;2022-07-29T06:50:03;49275.81;;;-141.90;27.19
5298;BME280;14738;42.668;23.250;2022-07-29T06:52:28;49271.84;;;-141.90;26.54
5298;BME280;14738;42.668;23.250;2022-07-29T06:54:54;49216.25;;;-141.90;26.39
5298;BME280;14738;42.668;23.250;2022-07-29T06:57:21;49293.69;;;-141.90;26.17
5298;BME280;14738;42.668;23.250;2022-07-29T06:59:46;49236.09;;;-141.90;26.24
5298;BME280;14738;42.668;23.250;2022-07-29T07:02:12;49212.28;;;-141.90;26.92
5298;BME280;14738;42.668;23.250;2022-07-29T07:04:37;49160.66;;;-141.90;26.99
5298;BME280;14738;42.668;23.250;2022-07-29T07:07:03;49244.03;;;-141.90;24.69
5298;BME280;14738;42.668;23.250;2022-07-29T07:09:28;49116.97;;;-141.90;26.61
5298;BME280;14738;42.668;23.250;2022-07-29T07:11:54;49109.03;;;-141.90;26.59
5298;BME280;14738;42.668;23.250;2022-07-29T07:14:19;49047.47;;;-141.90;28.32
5298;BME280;14738;42.668;23.250;2022-07-29T07:16:44;48979.97;;;-141.90;28.05
5298;BME280;14738;42.668;23.250;2022-07-29T07:19:10;48995.84;;;-141.90;29.57
5298;BME280;14738;42.668;23.250;2022-07-29T07:21:35;48934.28;;;-141.90;30.06
5298;BME280;14738;42.668;23.250;2022-07-29T07:24:00;48910.47;;;-141.90;30.81
5298;BME280;14738;42.668;23.250;2022-07-29T07:26:26;48934.28;;;-141.90;29.96
5298;BME280;14738;42.668;23.250;2022-07-29T07:28:52;48882.66;;;-141.90;32.07
5298;BME280;14738;42.668;23.250;2022-07-29T07:31:18;48874.72;;;-141.90;31.64
5298;BME280;14738;42.668;23.250;2022-07-29T07:33:43;48886.63;;;-141.90;32.78
5298;BME280;14738;42.668;23.250;2022-07-29T07:36:09;48862.81;;;-141.90;32.83
5298;BME280;14738;42.668;23.250;2022-07-29T07:38:34;48858.84;;;-141.90;33.53
5298;BME280;14738;42.668;23.250;2022-07-29T07:41:00;48886.63;;;-141.90;33.78
5298;BME280;14738;42.668;23.250;2022-07-29T07:43:26;48870.75;;;-141.90;32.06
5298;BME280;14738;42.668;23.250;2022-07-29T07:45:51;48876.72;;;-141.90;32.64
5298;BME280;14738;42.668;23.250;2022-07-29T07:48:17;48835.03;;;-141.90;33.65
5298;BME280;14738;42.668;23.250;2022-07-29T07:50:42;48805.25;;;-141.90;33.48
5298;BME280;14738;42.668;23.250;2022-07-29T07:53:09;48827.06;;;-141.90;33.20
5298;BME280;14738;42.668;23.250;2022-07-29T07:55:39;48811.19;;;-141.90;34.22
5298;BME280;14738;42.668;23.250;2022-07-29T07:58:05;48807.22;;;-141.90;33.93
5298;BME280;14738;42.668;23.250;2022-07-29T08:00:30;48839.00;;;-141.90;34.15
5298;BME280;14738;42.668;23.250;2022-07-29T08:02:57;48862.81;;;-141.90;33.67
5298;BME280;14738;42.668;23.250;2022-07-29T08:05:22;48823.09;;;-141.90;34.10
5298;BME280;14738;42.668;23.250;2022-07-29T08:07:48;48825.09;;;-141.90;33.65
5298;BME280;14738;42.668;23.250;2022-07-29T08:10:18;48831.03;;;-141.90;33.08
5298;BME280;14738;42.668;23.250;2022-07-29T08:13:21;48846.94;;;-141.90;33.53
5298;BME280;14738;42.668;23.250;2022-07-29T08:15:46;48846.94;;;-141.90;32.83
5298;BME280;14738;42.668;23.250;2022-07-29T08:18:13;48801.25;;;-141.90;33.44
5298;BME280;14738;42.668;23.250;2022-07-29T08:20:39;48862.81;;;-141.90;33.41
5298;BME280;14738;42.668;23.250;2022-07-29T08:23:06;48811.19;;;-141.90;33.42
5298;BME280;14738;42.668;23.250;2022-07-29T08:25:37;48807.22;;;-141.90;32.81
5298;BME280;14738;42.668;23.250;2022-07-29T08:28:04;48811.19;;;-141.90;33.00
5298;BME280;14738;42.668;23.250;2022-07-29T08:30:30;48827.06;;;-141.90;33.28
5298;BME280;14738;42.668;23.250;2022-07-29T08:32:55;48819.13;;;-141.90;31.92
5298;BME280;14738;42.668;23.250;2022-07-29T08:35:22;48868.78;;;-141.90;32.64
5298;BME280;14738;42.668;23.250;2022-07-29T08:37:48;48868.78;;;-141.90;31.99
5298;BME280;14738;42.668;23.250;2022-07-29T08:40:14;48884.66;;;-141.90;31.45
5298;BME280;14738;42.668;23.250;2022-07-29T08:42:40;48898.56;;;-141.90;30.75
5298;BME280;14738;42.668;23.250;2022-07-29T08:45:06;48882.66;;;-141.90;31.80
5298;BME280;14738;42.668;23.250;2022-07-29T08:47:32;48880.69;;;-141.90;31.69
5298;BME280;14738;42.668;23.250;2022-07-29T08:49:58;48910.47;;;-141.90;31.83
5298;BME280;14738;42.668;23.250;2022-07-29T08:52:29;48886.63;;;-141.90;31.55
5298;BME280;14738;42.668;23.250;2022-07-29T08:54:57;48854.88;;;-141.90;31.85
5298;BME280;14738;42.668;23.250;2022-07-29T08:57:24;48823.09;;;-141.90;32.78
5298;BME280;14738;42.668;23.250;2022-07-29T08:59:50;48831.03;;;-141.90;31.75
5298;BME280;14738;42.668;23.250;2022-07-29T09:02:22;48862.81;;;-141.90;31.53
5298;BME280;14738;42.668;23.250;2022-07-29T09:04:48;48870.75;;;-141.90;31.33
5298;BME280;14738;42.668;23.250;2022-07-29T09:07:16;48864.81;;;-141.90;31.44
5298;BME280;14738;42.668;23.250;2022-07-29T09:09:42;48840.97;;;-141.90;31.74
5298;BME280;14738;42.668;23.250;2022-07-29T09:12:11;48882.66;;;-141.90;31.05
5298;BME280;14738;42.668;23.250;2022-07-29T09:14:40;48854.88;;;-141.90;30.95
5298;BME280;14738;42.668;23.250;2022-07-29T09:17:07;48890.59;;;-141.90;31.28
5298;BME280;14738;42.668;23.250;2022-07-29T09:19:34;48894.59;;;-141.90;30.48
5298;BME280;14738;42.668;23.250;2022-07-29T09:22:06;48842.97;;;-141.90;30.03
5298;BME280;14738;42.668;23.250;2022-07-29T09:24:44;48870.75;;;-141.90;31.07
5298;BME280;14738;42.668;23.250;2022-07-29T09:29:43;48890.59;;;-141.90;29.92
5298;BME280;14738;42.668;23.250;2022-07-29T09:32:09;48882.66;;;-141.90;29.61
5298;BME280;14738;42.668;23.250;2022-07-29T09:34:36;48862.81;;;-141.90;30.39
5298;BME280;14738;42.668;23.250;2022-07-29T09:37:02;48868.78;;;-141.90;29.66
5298;BME280;14738;42.668;23.250;2022-07-29T09:39:32;48868.78;;;-141.90;28.53
5298;BME280;14738;42.668;23.250;2022-07-29T09:42:03;48866.78;;;-141.90;29.99
5298;BME280;14738;42.668;23.250;2022-07-29T09:47:08;48908.47;;;-141.90;29.12
5298;BME280;14738;42.668;23.250;2022-07-29T09:49:55;48914.44;;;-141.90;29.66
5298;BME280;14738;42.668;23.250;2022-07-29T09:52:29;48924.38;;;-141.90;28.75
5298;BME280;14738;42.668;23.250;2022-07-29T09:55:07;48954.16;;;-141.90;28.96
5298;BME280;14738;42.668;23.250;2022-07-29T09:57:33;48964.06;;;-141.90;28.09
5298;BME280;14738;42.668;23.250;2022-07-29T10:00:03;48993.84;;;-141.90;27.98
5298;BME280;14738;42.668;23.250;2022-07-29T10:02:32;48954.16;;;-141.90;27.55
5298;BME280;14738;42.668;23.250;2022-07-29T10:04:59;48950.19;;;-141.90;27.47
5298;BME280;14738;42.668;23.250;2022-07-29T10:07:25;48974.00;;;-141.90;27.62
5298;BME280;14738;42.668;23.250;2022-07-29T10:09:56;48977.97;;;-141.90;29.31
5298;BME280;14738;42.668;23.250;2022-07-29T10:12:22;48960.09;;;-141.90;28.55
5298;BME280;14738;42.668;23.250;2022-07-29T10:14:49;48942.22;;;-141.90;28.77
5298;BME280;14738;42.668;23.250;2022-07-29T10:17:15;48966.06;;;-141.90;28.36
5298;BME280;14738;42.668;23.250;2022-07-29T10:19:41;48950.19;;;-141.90;28.53
5298;BME280;14738;42.668;23.250;2022-07-29T10:22:10;48958.13;;;-141.90;28.40
5298;BME280;14738;42.668;23.250;2022-07-29T10:24:37;48995.84;;;-141.90;28.19
5298;BME280;14738;42.668;23.250;2022-07-29T10:27:05;48985.91;;;-141.90;28.08
5298;BME280;14738;42.668;23.250;2022-07-29T10:29:31;48981.94;;;-141.90;27.82
5298;BME280;14738;42.668;23.250;2022-07-29T10:35:12;48970.03;;;-141.90;27.85
5298;BME280;14738;42.668;23.250;2022-07-29T10:43:33;48981.94;;;-141.90;28.45
5298;BME280;14738;42.668;23.250;2022-07-29T10:46:01;48944.22;;;-141.90;28.05
5298;BME280;14738;42.668;23.250;2022-07-29T10:48:28;48920.41;;;-141.90;27.85
5298;BME280;14738;42.668;23.250;2022-07-29T10:51:03;48985.91;;;-141.90;27.91
5298;BME280;14738;42.668;23.250;2022-07-29T10:53:49;48950.19;;;-141.90;27.73
5298;BME280;14738;42.668;23.250;2022-07-29T10:56:29;48991.88;;;-141.90;27.75
5298;BME280;14738;42.668;23.250;2022-07-29T11:01:43;48979.97;;;-141.90;28.17
5298;BME280;14738;42.668;23.250;2022-07-29T11:04:09;48952.16;;;-141.90;28.96
5298;BME280;14738;42.668;23.250;2022-07-29T11:07:09;48902.53;;;-141.90;29.02
5298;BME280;14738;42.668;23.250;2022-07-29T11:09:34;48950.19;;;-141.90;28.45
5298;BME280;14738;42.668;23.250;2022-07-29T11:12:00;48938.25;;;-141.90;28.74
5298;BME280;14738;42.668;23.250;2022-07-29T11:17:19;48934.28;;;-141.90;28.29
5298;BME280;14738;42.668;23.250;2022-07-29T11:19:44;48958.13;;;-141.90;28.04
5298;BME280;14738;42.668;23.250;2022-07-29T11:22:11;48962.09;;;-141.90;28.07
5298;BME280;14738;42.668;23.250;2022-07-29T11:24:37;48940.25;;;-141.90;28.35
5298;BME280;14738;42.668;23.250;2022-07-29T11:27:19;48938.25;;;-141.90;28.52
5298;BME280;14738;42.668;23.250;2022-07-29T11:29:54;48991.88;;;-141.90;28.19
5298;BME280;14738;42.668;23.250;2022-07-29T11:32:21;48964.06;;;-141.90;28.32
5298;BME280;14738;42.668;23.250;2022-07-29T11:34:49;48954.16;;;-141.90;28.33
5298;BME280;14738;42.668;23.250;2022-07-29T11:37:17;48962.09;;;-141.90;28.68
5298;BME280;14738;42.668;23.250;2022-07-29T11:45:02;48966.06;;;-141.90;27.44
5298;BME280;14738;42.668;23.250;2022-07-29T11:47:32;48977.97;;;-141.90;27.40
5298;BME280;14738;42.668;23.250;2022-07-29T11:49:59;48987.91;;;-141.90;27.02
5298;BME280;14738;42.668;23.250;2022-07-29T11:52:39;48999.81;;;-141.90;27.42
5298;BME280;14738;42.668;23.250;2022-07-29T11:55:20;48981.94;;;-141.90;26.66
5298;BME280;14738;42.668;23.250;2022-07-29T12:00:28;48952.16;;;-141.90;27.09
5298;BME280;14738;42.668;23.250;2022-07-29T12:02:54;48958.13;;;-141.90;26.74
5298;BME280;14738;42.668;23.250;2022-07-29T12:05:21;48956.13;;;-141.90;26.76
5298;BME280;14738;42.668;23.250;2022-07-29T12:07:47;48948.19;;;-141.90;26.60
5298;BME280;14738;42.668;23.250;2022-07-29T12:10:13;48950.19;;;-141.90;26.51
5298;BME280;14738;42.668;23.250;2022-07-29T12:12:38;48946.19;;;-141.90;26.34
5298;BME280;14738;42.668;23.250;2022-07-29T12:15:12;48938.25;;;-141.90;26.28
5298;BME280;14738;42.668;23.250;2022-07-29T12:17:37;48970.03;;;-141.90;25.70
5298;BME280;14738;42.668;23.250;2022-07-29T12:20:05;48981.94;;;-141.90;26.21
5298;BME280;14738;42.668;23.250;2022-07-29T12:22:35;48960.09;;;-141.90;25.93
5298;BME280;14738;42.668;23.250;2022-07-29T12:25:10;48962.09;;;-141.90;26.19
5298;BME280;14738;42.668;23.250;2022-07-29T12:27:37;48946.19;;;-141.90;26.08
5298;BME280;14738;42.668;23.250;2022-07-29T12:30:08;48942.22;;;-141.90;26.59
5298;BME280;14738;42.668;23.250;2022-07-29T12:32:42;48977.97;;;-141.90;25.88
5298;BME280;14738;42.668;23.250;2022-07-29T12:35:15;48942.22;;;-141.90;25.87
5298;BME280;14738;42.668;23.250;2022-07-29T12:37:43;48989.88;;;-141.90;25.87
5298;BME280;14738;42.668;23.250;2022-07-29T12:40:11;48958.13;;;-141.90;26.14
5298;BME280;14738;42.668;23.250;2022-07-29T12:42:39;48964.06;;;-141.90;26.29
5298;BME280;14738;42.668;23.250;2022-07-29T12:45:05;48974.00;;;-141.90;25.83
5298;BME280;14738;42.668;23.250;2022-07-29T12:47:31;48966.06;;;-141.90;25.66
5298;BME280;14738;42.668;23.250;2022-07-29T12:50:13;48942.22;;;-141.90;25.55
5298;BME280;14738;42.668;23.250;2022-07-29T12:52:43;48942.22;;;-141.90;26.09
5298;BME280;14738;42.668;23.250;2022-07-29T12:55:09;48960.09;;;-141.90;25.91
5298;BME280;14738;42.668;23.250;2022-07-29T12:57:48;48952.16;;;-141.90;25.90
5298;BME280;14738;42.668;23.250;2022-07-29T13:00:23;48938.25;;;-141.90;25.68
5298;BME280;14738;42.668;23.250;2022-07-29T13:02:59;48968.03;;;-141.90;25.48
5298;BME280;14738;42.668;23.250;2022-07-29T13:05:44;48966.06;;;-141.90;25.60
5298;BME280;14738;42.668;23.250;2022-07-29T13:08:14;48942.22;;;-141.90;25.32
5298;BME280;14738;42.668;23.250;2022-07-29T13:10:41;48962.09;;;-141.90;25.38
5298;BME280;14738;42.668;23.250;2022-07-29T13:13:12;48924.38;;;-141.90;25.86
5298;BME280;14738;42.668;23.250;2022-07-29T13:15:40;48906.50;;;-141.90;25.29
5298;BME280;14738;42.668;23.250;2022-07-29T13:20:54;48952.16;;;-141.90;25.23
5298;BME280;14738;42.668;23.250;2022-07-29T13:23:19;48964.06;;;-141.90;25.13
5298;BME280;14738;42.668;23.250;2022-07-29T13:25:45;48976.00;;;-141.90;25.44